createdAt,value
2023-05-15T00:01:31.724Z,17.75
2023-05-15T00:03:59.584Z,17.76
2023-05-15T00:06:28.135Z,17.75
2023-05-15T00:08:56.056Z,17.77
2023-05-15T00:11:23.903Z,17.73
2023-05-15T00:13:52.301Z,17.65
2023-05-15T00:16:21.583Z,17.56
2023-05-15T00:18:49.545Z,17.52
2023-05-15T00:21:17.755Z,17.46
2023-05-15T00:23:47.502Z,17.41
2023-05-15T00:26:15.797Z,17.37
2023-05-15T00:28:43.674Z,17.34
2023-05-15T00:31:13.131Z,17.33
2023-05-15T00:33:42.530Z,17.27
2023-05-15T00:36:10.755Z,17.23
2023-05-15T00:38:38.631Z,17.22
2023-05-15T00:41:06.755Z,17.18
2023-05-15T00:43:34.609Z,17.13
2023-05-15T00:46:02.453Z,17.08
2023-05-15T00:48:30.319Z,17.11
2023-05-15T00:51:00.341Z,17.09
2023-05-15T00:53:28.346Z,17.08
2023-05-15T00:55:57.158Z,17.06
2023-05-15T00:58:25.148Z,17.06
2023-05-15T01:00:54.372Z,17.06
2023-05-15T01:03:22.324Z,17.07
2023-05-15T01:05:50.267Z,17.07
2023-05-15T01:08:21.929Z,17.05
2023-05-15T01:10:49.993Z,17.02
2023-05-15T01:13:17.874Z,16.97
2023-05-15T01:15:45.741Z,16.93
2023-05-15T01:18:13.713Z,16.93
2023-05-15T01:21:03.188Z,16.96
2023-05-15T01:23:39.910Z,16.90
2023-05-15T01:26:34.058Z,16.98
2023-05-15T01:29:06.070Z,16.97
2023-05-15T01:31:33.969Z,16.90
2023-05-15T01:34:04.194Z,16.91
2023-05-15T01:36:35.802Z,16.97
2023-05-15T01:39:04.450Z,16.98
2023-05-15T01:41:36.326Z,16.94
2023-05-15T01:44:07.003Z,16.89
2023-05-15T01:46:35.922Z,16.84
2023-05-15T01:49:03.809Z,16.77
2023-05-15T01:51:31.849Z,16.79
2023-05-15T01:53:59.994Z,16.79
2023-05-15T01:56:28.234Z,16.78
2023-05-15T01:58:56.365Z,16.72
2023-05-15T02:01:25.811Z,16.70
2023-05-15T02:03:53.725Z,16.73
2023-05-15T02:06:21.725Z,16.74
2023-05-15T02:08:49.693Z,16.75
2023-05-15T02:11:17.563Z,16.72
2023-05-15T02:13:45.434Z,16.74
2023-05-15T02:16:13.384Z,16.71
2023-05-15T02:18:42.925Z,16.70
2023-05-15T02:21:10.869Z,16.66
2023-05-15T02:23:39.282Z,16.59
2023-05-15T02:26:13.544Z,16.49
2023-05-15T02:28:46.285Z,16.44
2023-05-15T02:31:15.661Z,16.33
2023-05-15T02:33:48.445Z,16.25
2023-05-15T02:36:19.316Z,16.19
2023-05-15T02:38:49.415Z,16.13
2023-05-15T02:41:17.385Z,16.06
2023-05-15T02:43:45.361Z,16.02
2023-05-15T02:46:13.294Z,16.00
2023-05-15T02:48:41.377Z,15.94
2023-05-15T02:51:11.479Z,15.89
2023-05-15T02:53:40.619Z,15.84
2023-05-15T02:56:08.587Z,15.79
2023-05-15T02:58:36.472Z,15.73
2023-05-15T03:01:04.617Z,15.69
2023-05-15T03:03:32.654Z,15.63
2023-05-15T03:06:01.526Z,15.59
2023-05-15T03:08:30.822Z,15.54
2023-05-15T03:10:58.987Z,15.49
2023-05-15T03:13:26.920Z,15.42
2023-05-15T03:15:54.805Z,15.37
2023-05-15T03:18:22.951Z,15.34
2023-05-15T03:20:52.668Z,15.30
2023-05-15T03:23:20.821Z,15.28
2023-05-15T03:25:50.100Z,15.23
2023-05-15T03:28:17.979Z,15.20
2023-05-15T03:30:45.921Z,15.18
2023-05-15T03:33:13.813Z,15.16
2023-05-15T03:35:41.654Z,15.16
2023-05-15T03:38:09.534Z,15.13
2023-05-15T03:40:39.408Z,15.14
2023-05-15T03:43:08.786Z,15.10
2023-05-15T03:45:37.166Z,15.07
2023-05-15T03:48:05.442Z,15.06
2023-05-15T03:50:33.795Z,15.05
2023-05-15T03:53:01.666Z,15.05
2023-05-15T03:55:29.504Z,15.01
2023-05-15T03:57:58.539Z,14.99
2023-05-15T04:00:27.850Z,14.97
2023-05-15T04:02:55.921Z,14.92
2023-05-15T04:05:24.187Z,14.95
2023-05-15T04:07:52.233Z,14.93
2023-05-15T04:10:20.328Z,14.92
2023-05-15T04:12:48.513Z,14.89
2023-05-15T04:15:17.472Z,14.90
2023-05-15T04:17:46.951Z,14.88
2023-05-15T04:20:15.442Z,14.87
2023-05-15T04:22:43.492Z,14.86
2023-05-15T04:25:11.801Z,14.86
2023-05-15T04:27:39.696Z,14.85
2023-05-15T04:30:08.982Z,14.84
2023-05-15T04:32:37.526Z,14.53
2023-05-15T04:35:10.185Z,14.82
2023-05-15T04:37:38.257Z,14.80
2023-05-15T04:40:08.063Z,14.81
2023-05-15T04:42:37.730Z,14.78
2023-05-15T04:45:08.086Z,14.78
2023-05-15T04:47:36.085Z,14.76
2023-05-15T04:50:04.090Z,14.79
2023-05-15T04:52:33.340Z,14.81
2023-05-15T04:55:01.263Z,14.80
2023-05-15T04:57:29.172Z,14.81
2023-05-15T04:59:58.071Z,14.81
2023-05-15T05:02:25.976Z,14.79
2023-05-15T05:04:53.837Z,14.78
2023-05-15T05:07:21.741Z,14.73
2023-05-15T05:09:51.264Z,14.77
2023-05-15T05:12:21.998Z,14.78
2023-05-15T05:14:52.961Z,14.78
2023-05-15T05:17:20.849Z,14.44
2023-05-15T05:19:48.743Z,14.78
2023-05-15T05:22:16.592Z,14.73
2023-05-15T05:24:44.471Z,14.81
2023-05-15T05:27:13.801Z,14.83
2023-05-15T05:29:41.737Z,14.89
2023-05-15T05:32:09.598Z,14.92
2023-05-15T05:34:37.923Z,14.99
2023-05-15T05:37:06.267Z,15.05
2023-05-15T05:39:34.113Z,15.11
2023-05-15T05:42:02.029Z,15.14
2023-05-15T05:44:31.224Z,15.19
2023-05-15T05:46:59.085Z,15.23
2023-05-15T05:49:27.025Z,15.27
2023-05-15T05:51:54.901Z,15.32
2023-05-15T05:54:22.781Z,15.38
2023-05-15T05:56:50.637Z,15.41
2023-05-15T05:59:18.516Z,15.50
2023-05-15T06:01:49.221Z,15.59
2023-05-15T06:05:06.932Z,15.70
2023-05-15T06:07:37.091Z,15.80
2023-05-15T06:10:07.834Z,15.84
2023-05-15T06:12:37.707Z,15.95
2023-05-15T06:15:08.154Z,16.00
2023-05-15T06:17:38.567Z,16.09
2023-05-15T06:20:10.268Z,16.12
2023-05-15T06:22:40.053Z,16.12
2023-05-15T06:25:13.984Z,16.10
2023-05-15T06:27:42.803Z,16.07
2023-05-15T06:30:15.751Z,16.10
2023-05-15T06:32:46.805Z,16.15
2023-05-15T06:35:15.399Z,16.21
2023-05-15T06:37:44.145Z,16.20
2023-05-15T06:40:13.409Z,16.14
2023-05-15T06:42:42.473Z,16.02
2023-05-15T06:45:11.827Z,16.19
2023-05-15T06:47:40.680Z,16.26
2023-05-15T06:50:12.205Z,16.29
2023-05-15T06:52:41.098Z,16.34
2023-05-15T06:55:10.525Z,16.39
2023-05-15T06:57:39.624Z,16.41
2023-05-15T07:00:10.397Z,16.43
2023-05-15T07:02:39.178Z,16.50
2023-05-15T07:05:09.120Z,16.60
2023-05-15T07:07:39.339Z,16.70
2023-05-15T07:10:10.270Z,16.78
2023-05-15T07:12:38.829Z,16.97
2023-05-15T07:15:08.243Z,17.23
2023-05-15T07:17:36.910Z,17.49
2023-05-15T07:20:07.332Z,17.73
2023-05-15T07:22:44.520Z,17.93
2023-05-15T07:25:18.505Z,18.03
2023-05-15T07:27:47.345Z,17.93
2023-05-15T07:30:16.837Z,17.67
2023-05-15T07:32:45.442Z,17.51
2023-05-15T07:35:14.346Z,17.48
2023-05-15T07:37:43.044Z,17.51
2023-05-15T07:40:12.400Z,17.64
2023-05-15T07:42:44.034Z,17.81
2023-05-15T07:45:12.928Z,17.83
2023-05-15T07:47:46.668Z,17.74
2023-05-15T07:50:15.304Z,17.68
2023-05-15T07:52:44.102Z,17.71
2023-05-15T07:55:12.854Z,17.71
2023-05-15T07:57:42.946Z,17.75
2023-05-15T08:00:13.170Z,17.88
2023-05-15T08:02:42.751Z,18.06
2023-05-15T08:05:11.753Z,18.12
2023-05-15T08:07:40.561Z,18.14
2023-05-15T08:10:10.847Z,18.01
2023-05-15T08:12:46.474Z,17.95
2023-05-15T08:15:17.000Z,17.71
2023-05-15T08:17:46.150Z,17.49
2023-05-15T08:20:15.315Z,17.40
2023-05-15T08:22:44.565Z,17.35
2023-05-15T08:25:13.395Z,17.42
2023-05-15T08:27:42.172Z,17.60
2023-05-15T08:30:12.039Z,17.79
2023-05-15T08:32:42.693Z,17.87
2023-05-15T08:35:10.675Z,17.79
2023-05-15T08:37:38.585Z,17.71
2023-05-15T08:40:08.132Z,17.63
2023-05-15T08:42:39.494Z,17.39
2023-05-15T08:45:09.519Z,17.34
2023-05-15T08:47:41.501Z,17.19
2023-05-15T08:50:12.215Z,17.06
2023-05-15T08:52:41.698Z,16.97
2023-05-15T08:55:10.200Z,16.99
2023-05-15T08:57:38.364Z,17.14
2023-05-15T09:00:09.320Z,17.31
2023-05-15T09:02:37.850Z,17.45
2023-05-15T09:05:08.524Z,17.66
2023-05-15T09:07:37.089Z,17.89
2023-05-15T09:10:05.916Z,18.07
2023-05-15T09:12:34.871Z,18.20
2023-05-15T09:15:12.829Z,18.39
2023-05-15T09:17:40.811Z,18.53
2023-05-15T09:20:25.891Z,18.72
2023-05-15T09:22:54.024Z,18.61
2023-05-15T09:25:34.422Z,18.78
2023-05-15T09:28:02.591Z,18.76
2023-05-15T09:30:31.188Z,18.79
2023-05-15T09:33:01.324Z,18.83
2023-05-15T09:35:40.666Z,18.71
2023-05-15T09:38:10.309Z,18.65
2023-05-15T09:40:38.241Z,18.57
2023-05-15T09:43:06.275Z,18.42
2023-05-15T09:45:34.887Z,18.63
2023-05-15T09:48:05.683Z,18.74
2023-05-15T09:50:34.899Z,18.78
2023-05-15T09:53:04.218Z,18.70
2023-05-15T09:55:33.033Z,18.59
2023-05-15T09:58:07.885Z,18.62
2023-05-15T10:00:36.205Z,18.56
2023-05-15T10:03:17.203Z,18.52
2023-05-15T10:05:45.275Z,18.43
2023-05-15T10:08:16.413Z,18.43
2023-05-15T10:10:44.705Z,18.43
2023-05-15T10:13:12.620Z,18.38
2023-05-15T10:15:40.713Z,18.52
2023-05-15T10:18:08.856Z,18.53
2023-05-15T10:20:36.931Z,18.69
2023-05-15T10:23:05.831Z,18.89
2023-05-15T10:25:39.596Z,19.11
2023-05-15T10:28:08.867Z,19.14
2023-05-15T10:30:37.227Z,19.18
2023-05-15T10:33:05.657Z,19.30
2023-05-15T10:35:33.751Z,19.37
2023-05-15T10:38:01.829Z,19.37
2023-05-15T10:40:29.793Z,19.37
2023-05-15T10:42:59.065Z,19.50
2023-05-15T10:45:27.214Z,19.57
2023-05-15T10:47:55.092Z,19.57
2023-05-15T10:50:23.258Z,19.53
2023-05-15T10:52:52.050Z,19.43
2023-05-15T10:55:19.979Z,19.36
2023-05-15T10:57:48.302Z,19.29
2023-05-15T11:00:32.524Z,19.27
2023-05-15T11:03:01.249Z,19.34
2023-05-15T11:05:31.116Z,19.55
2023-05-15T11:08:29.880Z,19.66
2023-05-15T11:10:57.964Z,19.57
2023-05-15T11:13:26.685Z,19.28
2023-05-15T11:15:57.315Z,19.60
2023-05-15T11:18:25.198Z,19.64
2023-05-15T11:21:11.462Z,19.89
2023-05-15T11:23:40.729Z,20.12
2023-05-15T11:26:08.609Z,20.18
2023-05-15T11:28:42.754Z,20.00
2023-05-15T11:31:12.162Z,19.81
2023-05-15T11:33:40.815Z,20.05
2023-05-15T11:36:08.857Z,20.18
2023-05-15T11:38:40.197Z,20.34
2023-05-15T11:41:18.708Z,20.59
2023-05-15T11:43:47.089Z,20.78
2023-05-15T11:46:16.480Z,20.95
2023-05-15T11:48:47.761Z,21.15
2023-05-15T11:51:17.839Z,21.35
2023-05-15T11:53:45.810Z,21.50
2023-05-15T11:56:19.421Z,21.61
2023-05-15T11:58:49.710Z,21.89
2023-05-15T12:01:19.122Z,22.22
2023-05-15T12:03:48.463Z,22.48
2023-05-15T12:06:16.594Z,22.69
2023-05-15T12:08:45.382Z,22.66
2023-05-15T12:11:13.555Z,22.76
2023-05-15T12:16:09.139Z,22.94
2023-05-15T12:18:38.879Z,22.99
2023-05-15T12:21:07.002Z,23.02
2023-05-15T12:23:34.923Z,23.20
2023-05-15T12:26:03.587Z,23.31
2023-05-15T12:28:35.139Z,23.35
2023-05-15T12:31:04.195Z,23.40
2023-05-15T12:33:32.352Z,23.53
2023-05-15T12:36:02.047Z,23.63
2023-05-15T12:38:30.595Z,23.79
2023-05-15T12:40:58.766Z,24.07
2023-05-15T12:43:26.744Z,24.37
2023-05-15T12:45:55.092Z,24.58
2023-05-15T12:48:23.098Z,24.65
2023-05-15T12:50:51.675Z,24.53
2023-05-15T12:53:22.584Z,24.57
2023-05-15T12:55:50.475Z,24.67
2023-05-15T12:58:19.201Z,24.87
2023-05-15T13:00:49.846Z,24.77
2023-05-15T13:03:21.120Z,24.56
2023-05-15T13:05:49.157Z,24.62
2023-05-15T13:08:17.909Z,24.79
2023-05-15T13:10:47.925Z,24.83
2023-05-15T13:13:16.055Z,24.94
2023-05-15T13:15:44.748Z,25.05
2023-05-15T13:18:13.380Z,25.14
2023-05-15T13:20:42.347Z,25.42
2023-05-15T13:23:10.940Z,25.61
2023-05-15T13:25:38.812Z,25.81
2023-05-15T13:28:08.442Z,26.09
2023-05-15T13:30:36.369Z,26.21
2023-05-15T13:33:04.974Z,26.03
2023-05-15T13:35:36.926Z,26.11
2023-05-15T13:38:05.423Z,26.32
2023-05-15T13:40:35.484Z,26.11
2023-05-15T13:43:03.359Z,26.30
2023-05-15T13:45:33.181Z,26.38
2023-05-15T13:48:01.482Z,26.52
2023-05-15T13:50:29.535Z,26.60
2023-05-15T13:52:57.468Z,26.62
2023-05-15T13:55:26.292Z,26.49
2023-05-15T13:57:54.364Z,26.35
2023-05-15T14:00:23.150Z,26.40
2023-05-15T14:02:52.488Z,26.44
2023-05-15T14:05:20.912Z,26.56
2023-05-15T14:07:48.967Z,26.63
2023-05-15T14:10:17.288Z,26.79
2023-05-15T14:12:46.626Z,26.96
2023-05-15T14:15:14.570Z,27.16
2023-05-15T14:17:47.339Z,27.16
2023-05-15T14:20:17.219Z,27.22
2023-05-15T14:22:45.230Z,27.12
2023-05-15T14:25:13.601Z,27.12
2023-05-15T14:27:41.503Z,27.26
2023-05-15T14:30:10.575Z,27.34
2023-05-15T14:32:38.459Z,27.42
2023-05-15T14:35:06.738Z,27.53
2023-05-15T14:37:36.150Z,27.58
2023-05-15T14:40:04.969Z,27.62
2023-05-15T14:42:33.036Z,27.70
2023-05-15T14:45:01.158Z,27.59
2023-05-15T14:47:30.031Z,27.41
2023-05-15T14:49:57.936Z,27.24
2023-05-15T14:52:25.883Z,27.17
2023-05-15T14:55:07.755Z,27.14
2023-05-15T14:57:36.955Z,26.97
2023-05-15T15:00:06.094Z,27.05
2023-05-15T15:02:34.293Z,27.10
2023-05-15T15:05:02.283Z,27.10
2023-05-15T15:07:30.437Z,27.18
2023-05-15T15:09:59.680Z,27.10
2023-05-15T15:12:27.978Z,27.38
2023-05-15T15:14:55.945Z,27.64
2023-05-15T15:17:24.203Z,28.00
2023-05-15T15:19:52.484Z,28.00
2023-05-15T15:22:20.798Z,28.12
2023-05-15T15:24:48.848Z,27.94
2023-05-15T15:27:18.694Z,27.73
2023-05-15T15:29:46.917Z,28.01
2023-05-15T15:32:15.015Z,28.29
2023-05-15T15:34:42.948Z,28.26
2023-05-15T15:37:11.527Z,28.13
2023-05-15T15:39:39.532Z,28.12
2023-05-15T15:42:07.671Z,28.21
2023-05-15T15:44:37.342Z,28.37
2023-05-15T15:47:05.831Z,28.61
2023-05-15T15:49:34.112Z,28.70
2023-05-15T15:52:02.605Z,28.78
2023-05-15T15:54:31.229Z,28.72
2023-05-15T15:56:59.320Z,28.72
2023-05-15T15:59:27.245Z,28.86
2023-05-15T16:01:56.490Z,29.00
2023-05-15T16:04:24.580Z,28.87
2023-05-15T16:06:52.496Z,28.72
2023-05-15T16:09:20.330Z,28.46
2023-05-15T16:11:48.310Z,28.45
2023-05-15T16:14:16.310Z,28.47
2023-05-15T16:16:44.298Z,28.58
2023-05-15T16:19:14.086Z,28.71
2023-05-15T16:21:42.072Z,28.65
2023-05-15T16:24:10.254Z,28.72
2023-05-15T16:26:38.531Z,28.70
2023-05-15T16:29:06.996Z,28.72
2023-05-15T16:31:34.865Z,28.88
2023-05-15T16:34:03.812Z,29.02
2023-05-15T16:36:33.284Z,29.13
2023-05-15T16:39:01.594Z,29.15
2023-05-15T16:41:30.149Z,29.19
2023-05-15T16:43:58.098Z,29.24
2023-05-15T16:46:26.327Z,29.28
2023-05-15T16:48:54.452Z,29.33
2023-05-15T16:51:22.759Z,29.41
2023-05-15T16:53:56.452Z,29.55
2023-05-15T16:56:24.403Z,29.59
2023-05-15T16:58:53.027Z,29.45
2023-05-15T17:01:21.713Z,29.41
2023-05-15T17:03:49.883Z,29.42
2023-05-15T17:06:17.808Z,29.52
2023-05-15T17:08:46.289Z,29.60
2023-05-15T17:11:15.535Z,29.71
2023-05-15T17:13:43.414Z,29.91
2023-05-15T17:16:11.421Z,29.99
2023-05-15T17:18:40.342Z,29.94
2023-05-15T17:21:08.286Z,29.75
2023-05-15T17:23:36.422Z,29.45
2023-05-15T17:26:04.356Z,29.06
2023-05-15T17:28:35.882Z,28.39
2023-05-15T17:31:09.583Z,27.42
2023-05-15T17:33:37.483Z,26.38
2023-05-15T17:36:05.866Z,25.52
2023-05-15T17:38:33.894Z,24.76
2023-05-15T17:41:01.807Z,24.21
2023-05-15T17:43:29.720Z,23.87
2023-05-15T17:46:00.544Z,23.60
2023-05-15T17:48:28.595Z,23.39
2023-05-15T17:50:56.746Z,23.14
2023-05-15T17:53:24.642Z,22.96
2023-05-15T17:55:53.113Z,22.78
2023-05-15T17:58:21.914Z,22.54
2023-05-15T18:00:49.855Z,22.18
2023-05-15T18:03:19.137Z,21.93
2023-05-15T18:05:47.536Z,21.73
2023-05-15T18:08:15.520Z,21.62
2023-05-15T18:10:43.865Z,21.84
2023-05-15T18:13:11.804Z,22.27
2023-05-15T18:15:40.304Z,22.95
2023-05-15T18:18:08.345Z,23.47
2023-05-15T18:20:38.027Z,23.78
2023-05-15T18:23:06.440Z,24.08
2023-05-15T18:25:39.706Z,24.11
2023-05-15T18:28:07.786Z,23.60
2023-05-15T18:30:35.935Z,22.83
2023-05-15T18:33:03.870Z,22.12
2023-05-15T18:35:31.994Z,21.47
2023-05-15T18:38:01.316Z,20.99
2023-05-15T18:40:29.287Z,20.54
2023-05-15T18:42:57.254Z,20.31
2023-05-15T18:45:29.605Z,19.92
2023-05-15T18:47:57.610Z,19.91
2023-05-15T18:50:26.030Z,19.82
2023-05-15T18:52:54.439Z,19.71
2023-05-15T18:55:24.056Z,19.64
2023-05-15T18:57:52.050Z,19.56
2023-05-15T19:00:33.905Z,19.48
2023-05-15T19:03:07.179Z,19.34
2023-05-15T19:05:35.250Z,19.23
2023-05-15T19:08:04.298Z,19.15
2023-05-15T19:10:33.840Z,19.06
2023-05-15T19:13:01.749Z,18.98
2023-05-15T19:15:29.634Z,18.89
2023-05-15T19:17:57.559Z,18.86
2023-05-15T19:20:26.104Z,18.81
2023-05-15T19:22:54.073Z,18.73
2023-05-15T19:25:22.172Z,18.62
2023-05-15T19:27:51.441Z,18.52
2023-05-15T19:30:19.991Z,18.28
2023-05-15T19:32:48.375Z,18.25
2023-05-15T19:35:16.536Z,18.22
2023-05-15T19:37:44.377Z,18.16
2023-05-15T19:40:13.197Z,18.13
2023-05-15T19:42:41.118Z,18.05
2023-05-15T19:45:11.546Z,18.03
2023-05-15T19:47:39.470Z,17.93
2023-05-15T19:50:08.719Z,17.94
2023-05-15T19:52:36.599Z,17.90
2023-05-15T19:55:04.796Z,17.85
2023-05-15T19:57:32.720Z,17.80
2023-05-15T20:00:00.700Z,17.74
2023-05-15T20:02:30.058Z,17.70
2023-05-15T20:04:57.998Z,17.61
2023-05-15T20:07:25.836Z,17.53
2023-05-15T20:09:53.662Z,17.49
2023-05-15T20:12:22.522Z,17.44
2023-05-15T20:14:50.375Z,17.40
2023-05-15T20:17:18.437Z,17.39
2023-05-15T20:19:48.092Z,17.33
2023-05-15T20:22:15.965Z,17.30
2023-05-15T20:24:44.294Z,17.30
2023-05-15T20:27:12.406Z,17.29
2023-05-15T20:29:40.463Z,17.29
2023-05-15T20:32:08.572Z,17.27
2023-05-15T20:34:36.905Z,17.22
2023-05-15T20:37:06.384Z,17.20
2023-05-15T20:39:34.326Z,17.16
2023-05-15T20:42:02.266Z,17.12
2023-05-15T20:44:30.580Z,17.05
2023-05-15T20:46:58.462Z,17.02
2023-05-15T20:49:27.102Z,17.00
2023-05-15T20:51:55.050Z,16.94
2023-05-15T20:54:24.344Z,16.85
2023-05-15T20:56:52.314Z,16.81
2023-05-15T20:59:20.188Z,16.74
2023-05-15T21:01:48.112Z,16.70
2023-05-15T21:04:16.183Z,16.67
2023-05-15T21:06:44.086Z,16.62
2023-05-15T21:09:12.005Z,16.56
2023-05-15T21:11:41.232Z,16.47
2023-05-15T21:14:09.103Z,16.41
2023-05-15T21:16:37.076Z,16.23
2023-05-15T21:19:05.080Z,16.31
2023-05-15T21:21:33.025Z,16.29
2023-05-15T21:24:02.178Z,16.26
2023-05-15T21:26:30.121Z,16.21
2023-05-15T21:28:59.549Z,16.19
2023-05-15T21:31:27.671Z,16.17
2023-05-15T21:33:55.916Z,16.15
2023-05-15T21:36:23.944Z,16.11
2023-05-15T21:38:51.807Z,16.07
2023-05-15T21:41:19.650Z,16.03
2023-05-15T21:43:47.508Z,16.01
2023-05-15T21:46:16.790Z,15.99
2023-05-15T21:48:44.683Z,15.99
2023-05-15T21:51:12.576Z,15.97
2023-05-15T21:53:40.472Z,15.93
2023-05-15T21:56:08.973Z,15.91
2023-05-15T21:58:36.833Z,15.91
2023-05-15T22:01:04.686Z,15.92
2023-05-15T22:03:34.132Z,15.89
2023-05-15T22:06:02.151Z,15.91
2023-05-15T22:08:30.107Z,15.91
2023-05-15T22:10:58.653Z,15.91
2023-05-15T22:13:26.594Z,15.90
2023-05-15T22:15:54.558Z,15.91
2023-05-15T22:18:23.212Z,15.92
2023-05-15T22:20:52.447Z,15.92
2023-05-15T22:23:20.390Z,15.90
2023-05-15T22:25:49.077Z,15.87
2023-05-15T22:28:17.013Z,15.86
2023-05-15T22:30:44.885Z,15.85
2023-05-15T22:33:12.811Z,15.85
2023-05-15T22:35:41.148Z,15.83
2023-05-15T22:38:10.414Z,15.84
2023-05-15T22:40:38.301Z,15.83
2023-05-15T22:43:06.179Z,15.54
2023-05-15T22:45:34.122Z,15.86
2023-05-15T22:48:02.401Z,15.84
2023-05-15T22:50:30.443Z,15.81
2023-05-15T22:52:58.327Z,15.79
2023-05-15T22:55:27.670Z,15.79
2023-05-15T22:57:55.599Z,15.80
2023-05-15T23:00:23.526Z,15.78
2023-05-15T23:02:55.264Z,15.78
2023-05-15T23:05:24.869Z,15.75
2023-05-15T23:08:47.960Z,15.68
2023-05-15T23:11:17.265Z,15.58
2023-05-15T23:13:45.169Z,15.53
2023-05-15T23:16:13.124Z,15.51
2023-05-15T23:18:41.085Z,15.49
2023-05-15T23:21:09.005Z,15.49
2023-05-15T23:23:36.899Z,15.46
2023-05-15T23:26:04.823Z,15.45
2023-05-15T23:28:34.081Z,15.45
2023-05-15T23:31:01.981Z,15.47
2023-05-15T23:33:29.874Z,15.49
2023-05-15T23:35:57.717Z,15.47
2023-05-15T23:38:25.700Z,15.47
2023-05-15T23:40:53.658Z,15.45
2023-05-15T23:43:22.089Z,15.40
2023-05-15T23:45:51.310Z,15.39
2023-05-15T23:48:19.213Z,15.39
2023-05-15T23:50:47.091Z,15.37
2023-05-15T23:53:14.952Z,15.34
2023-05-15T23:55:42.854Z,15.37
2023-05-15T23:58:10.727Z,15.37
